sensor_id;sensor_type;location;lat;lon;timestamp;temperature;humidity
67890;DHT22;54685;52.082;5.426;2024-03-22T00:01:44;11.60;99.90
67890;DHT22;54685;52.082;5.426;2024-03-22T00:04:10;11.60;99.90
67890;DHT22;54685;52.082;5.426;2024-03-22T00:06:36;11.50;99.90
67890;DHT22;54685;52.082;5.426;2024-03-22T00:09:02;11.50;99.90
67890;DHT22;54685;52.082;5.426;2024-03-22T00:11:27;11.50;99.90
67890;DHT22;54685;52.082;5.426;2024-03-22T00:13:53;11.40;99.90
67890;DHT22;54685;52.082;5.426;2024-03-22T00:16:19;11.50;99.90
67890;DHT22;54685;52.082;5.426;2024-03-22T00:18:46;11.50;99.90
67890;DHT22;54685;52.082;5.426;2024-03-22T00:21:11;11.60;99.90
67890;DHT22;54685;52.082;5.426;2024-03-22T00:23:37;11.60;99.90
67890;DHT22;54685;52.082;5.426;2024-03-22T00:26:03;11.60;99.90
67890;DHT22;54685;52.082;5.426;2024-03-22T00:28:29;11.70;99.90
67890;DHT22;54685;52.082;5.426;2024-03-22T00:30:55;11.60;99.90
67890;DHT22;54685;52.082;5.426;2024-03-22T00:33:21;11.60;99.90
67890;DHT22;54685;52.082;5.426;2024-03-22T00:35:47;11.50;99.90
67890;DHT22;54685;52.082;5.426;2024-03-22T00:38:13;11.50;99.90
67890;DHT22;54685;52.082;5.426;2024-03-22T00:40:38;11.50;99.90
67890;DHT22;54685;52.082;5.426;2024-03-22T00:43:04;11.50;99.90
67890;DHT22;54685;52.082;5.426;2024-03-22T00:45:31;11.40;99.90
67890;DHT22;54685;52.082;5.426;2024-03-22T00:47:57;11.50;99.90
67890;DHT22;54685;52.082;5.426;2024-03-22T00:50:23;11.40;99.90
67890;DHT22;54685;52.082;5.426;2024-03-22T00:52:50;11.50;99.90
67890;DHT22;54685;52.082;5.426;2024-03-22T00:55:17;11.50;99.90
67890;DHT22;54685;52.082;5.426;2024-03-22T00:57:43;11.50;99.90
67890;DHT22;54685;52.082;5.426;2024-03-22T01:00:09;11.50;99.90
67890;DHT22;54685;52.082;5.426;2024-03-22T01:02:35;11.60;99.90
67890;DHT22;54685;52.082;5.426;2024-03-22T01:05:02;11.60;99.90
67890;DHT22;54685;52.082;5.426;2024-03-22T01:07:28;11.50;99.90
67890;DHT22;54685;52.082;5.426;2024-03-22T01:09:54;11.40;99.90
67890;DHT22;54685;52.082;5.426;2024-03-22T01:12:19;11.40;99.90
67890;DHT22;54685;52.082;5.426;2024-03-22T01:14:45;11.40;99.90
67890;DHT22;54685;52.082;5.426;2024-03-22T01:17:11;11.50;99.90
67890;DHT22;54685;52.082;5.426;2024-03-22T01:19:37;11.40;99.90
67890;DHT22;54685;52.082;5.426;2024-03-22T01:22:03;11.40;99.90
67890;DHT22;54685;52.082;5.426;2024-03-22T01:24:29;11.30;99.90
67890;DHT22;54685;52.082;5.426;2024-03-22T01:26:55;11.30;99.90
67890;DHT22;54685;52.082;5.426;2024-03-22T01:29:21;11.30;99.90
67890;DHT22;54685;52.082;5.426;2024-03-22T01:31:47;11.20;99.90
67890;DHT22;54685;52.082;5.426;2024-03-22T01:34:13;11.30;99.90
67890;DHT22;54685;52.082;5.426;2024-03-22T01:36:40;11.30;99.90
67890;DHT22;54685;52.082;5.426;2024-03-22T01:39:06;11.30;99.90
67890;DHT22;54685;52.082;5.426;2024-03-22T01:41:32;11.30;99.90
67890;DHT22;54685;52.082;5.426;2024-03-22T01:43:58;11.30;99.90
67890;DHT22;54685;52.082;5.426;2024-03-22T01:46:24;11.30;99.90
67890;DHT22;54685;52.082;5.426;2024-03-22T01:48:51;11.20;99.90
67890;DHT22;54685;52.082;5.426;2024-03-22T01:51:18;11.30;99.90
67890;DHT22;54685;52.082;5.426;2024-03-22T01:53:44;11.30;99.90
67890;DHT22;54685;52.082;5.426;2024-03-22T01:56:10;11.30;99.90
67890;DHT22;54685;52.082;5.426;2024-03-22T01:58:36;11.30;99.90
67890;DHT22;54685;52.082;5.426;2024-03-22T02:01:02;11.30;99.90
67890;DHT22;54685;52.082;5.426;2024-03-22T02:03:28;11.30;99.90
67890;DHT22;54685;52.082;5.426;2024-03-22T02:05:55;11.30;99.90
67890;DHT22;54685;52.082;5.426;2024-03-22T02:08:21;11.40;99.90
67890;DHT22;54685;52.082;5.426;2024-03-22T02:10:47;11.40;99.90
67890;DHT22;54685;52.082;5.426;2024-03-22T02:13:13;11.40;99.90
67890;DHT22;54685;52.082;5.426;2024-03-22T02:15:38;11.30;99.90
67890;DHT22;54685;52.082;5.426;2024-03-22T02:18:04;11.40;99.90
67890;DHT22;54685;52.082;5.426;2024-03-22T02:20:30;11.40;99.90
67890;DHT22;54685;52.082;5.426;2024-03-22T02:22:56;11.40;99.90
67890;DHT22;54685;52.082;5.426;2024-03-22T02:25:22;11.40;99.90
67890;DHT22;54685;52.082;5.426;2024-03-22T02:27:48;11.40;99.90
67890;DHT22;54685;52.082;5.426;2024-03-22T02:30:17;11.50;99.90
67890;DHT22;54685;52.082;5.426;2024-03-22T02:32:43;11.50;99.90
67890;DHT22;54685;52.082;5.426;2024-03-22T02:35:09;11.40;99.90
67890;DHT22;54685;52.082;5.426;2024-03-22T02:37:34;11.40;99.90
67890;DHT22;54685;52.082;5.426;2024-03-22T02:40:00;11.30;99.90
67890;DHT22;54685;52.082;5.426;2024-03-22T02:42:26;11.30;99.90
67890;DHT22;54685;52.082;5.426;2024-03-22T02:44:52;11.30;99.90
67890;DHT22;54685;52.082;5.426;2024-03-22T02:47:18;11.20;99.90
67890;DHT22;54685;52.082;5.426;2024-03-22T02:49:44;11.20;99.90
67890;DHT22;54685;52.082;5.426;2024-03-22T02:52:12;11.30;99.90
67890;DHT22;54685;52.082;5.426;2024-03-22T02:54:40;11.20;99.90
67890;DHT22;54685;52.082;5.426;2024-03-22T02:57:06;11.10;99.90
67890;DHT22;54685;52.082;5.426;2024-03-22T02:59:32;11.10;99.90
67890;DHT22;54685;52.082;5.426;2024-03-22T03:01:58;11.10;99.90
67890;DHT22;54685;52.082;5.426;2024-03-22T03:04:23;11.10;99.90
67890;DHT22;54685;52.082;5.426;2024-03-22T03:06:49;11.10;99.90
67890;DHT22;54685;52.082;5.426;2024-03-22T03:09:15;11.00;99.90
67890;DHT22;54685;52.082;5.426;2024-03-22T03:11:41;11.00;99.90
67890;DHT22;54685;52.082;5.426;2024-03-22T03:14:07;11.00;99.90
67890;DHT22;54685;52.082;5.426;2024-03-22T03:16:33;11.00;99.90
67890;DHT22;54685;52.082;5.426;2024-03-22T03:18:59;11.00;99.90
67890;DHT22;54685;52.082;5.426;2024-03-22T03:21:24;10.90;99.90
67890;DHT22;54685;52.082;5.426;2024-03-22T03:23:50;11.00;99.90
67890;DHT22;54685;52.082;5.426;2024-03-22T03:26:16;10.90;99.90
67890;DHT22;54685;52.082;5.426;2024-03-22T03:28:42;10.80;99.90
67890;DHT22;54685;52.082;5.426;2024-03-22T03:31:08;10.80;99.90
67890;DHT22;54685;52.082;5.426;2024-03-22T03:33:33;10.80;99.90
67890;DHT22;54685;52.082;5.426;2024-03-22T03:35:59;10.80;99.90
67890;DHT22;54685;52.082;5.426;2024-03-22T03:38:25;10.80;99.90
67890;DHT22;54685;52.082;5.426;2024-03-22T03:40:51;10.90;99.90
67890;DHT22;54685;52.082;5.426;2024-03-22T03:43:17;11.00;99.90
67890;DHT22;54685;52.082;5.426;2024-03-22T03:45:42;11.00;99.90
67890;DHT22;54685;52.082;5.426;2024-03-22T03:48:08;11.10;99.90
67890;DHT22;54685;52.082;5.426;2024-03-22T03:50:34;11.00;99.90
67890;DHT22;54685;52.082;5.426;2024-03-22T03:53:00;10.90;99.90
67890;DHT22;54685;52.082;5.426;2024-03-22T03:55:26;10.90;99.90
67890;DHT22;54685;52.082;5.426;2024-03-22T03:57:52;10.80;99.90
67890;DHT22;54685;52.082;5.426;2024-03-22T04:00:19;10.70;99.90
67890;DHT22;54685;52.082;5.426;2024-03-22T04:02:45;10.60;99.90
67890;DHT22;54685;52.082;5.426;2024-03-22T04:05:11;10.70;99.90
67890;DHT22;54685;52.082;5.426;2024-03-22T04:07:37;10.80;99.90
67890;DHT22;54685;52.082;5.426;2024-03-22T04:10:05;10.70;99.90
67890;DHT22;54685;52.082;5.426;2024-03-22T04:12:31;10.70;99.90
67890;DHT22;54685;52.082;5.426;2024-03-22T04:14:57;10.70;99.90
67890;DHT22;54685;52.082;5.426;2024-03-22T04:17:23;10.80;99.90
67890;DHT22;54685;52.082;5.426;2024-03-22T04:19:52;10.70;99.90
67890;DHT22;54685;52.082;5.426;2024-03-22T04:22:18;10.70;99.90
67890;DHT22;54685;52.082;5.426;2024-03-22T04:24:44;10.80;99.90
67890;DHT22;54685;52.082;5.426;2024-03-22T04:27:10;10.60;99.90
67890;DHT22;54685;52.082;5.426;2024-03-22T04:29:35;10.70;99.90
67890;DHT22;54685;52.082;5.426;2024-03-22T04:32:01;10.70;99.90
67890;DHT22;54685;52.082;5.426;2024-03-22T04:34:27;10.70;99.90
67890;DHT22;54685;52.082;5.426;2024-03-22T04:36:53;10.70;99.90
67890;DHT22;54685;52.082;5.426;2024-03-22T04:39:20;10.70;99.90
67890;DHT22;54685;52.082;5.426;2024-03-22T04:41:45;10.70;99.90
67890;DHT22;54685;52.082;5.426;2024-03-22T04:44:11;10.70;99.90
67890;DHT22;54685;52.082;5.426;2024-03-22T04:46:37;10.50;99.90
67890;DHT22;54685;52.082;5.426;2024-03-22T04:49:03;10.60;99.90
67890;DHT22;54685;52.082;5.426;2024-03-22T04:51:29;10.50;99.90
67890;DHT22;54685;52.082;5.426;2024-03-22T04:53:54;10.60;99.90
67890;DHT22;54685;52.082;5.426;2024-03-22T04:56:20;10.60;99.90
67890;DHT22;54685;52.082;5.426;2024-03-22T04:58:46;10.60;99.90
67890;DHT22;54685;52.082;5.426;2024-03-22T05:01:12;10.60;99.90
67890;DHT22;54685;52.082;5.426;2024-03-22T05:03:38;10.60;99.90
67890;DHT22;54685;52.082;5.426;2024-03-22T05:06:04;10.60;99.90
67890;DHT22;54685;52.082;5.426;2024-03-22T05:08:32;10.70;99.90
67890;DHT22;54685;52.082;5.426;2024-03-22T05:10:58;10.40;99.90
67890;DHT22;54685;52.082;5.426;2024-03-22T05:13:24;10.40;99.90
67890;DHT22;54685;52.082;5.426;2024-03-22T05:15:49;10.40;99.90
67890;DHT22;54685;52.082;5.426;2024-03-22T05:18:15;10.40;99.90
67890;DHT22;54685;52.082;5.426;2024-03-22T05:20:41;10.40;99.90
67890;DHT22;54685;52.082;5.426;2024-03-22T05:23:07;10.40;99.90
67890;DHT22;54685;52.082;5.426;2024-03-22T05:25:33;10.40;99.90
67890;DHT22;54685;52.082;5.426;2024-03-22T05:27:59;10.40;99.90
67890;DHT22;54685;52.082;5.426;2024-03-22T05:30:24;10.30;99.90
67890;DHT22;54685;52.082;5.426;2024-03-22T05:32:50;10.30;99.90
67890;DHT22;54685;52.082;5.426;2024-03-22T05:35:16;10.40;99.90
67890;DHT22;54685;52.082;5.426;2024-03-22T05:37:42;10.40;99.90
67890;DHT22;54685;52.082;5.426;2024-03-22T05:40:08;10.30;99.90
67890;DHT22;54685;52.082;5.426;2024-03-22T05:42:34;10.30;99.90
67890;DHT22;54685;52.082;5.426;2024-03-22T05:45:00;10.20;99.90
67890;DHT22;54685;52.082;5.426;2024-03-22T05:47:26;10.40;99.90
67890;DHT22;54685;52.082;5.426;2024-03-22T05:49:52;10.30;99.90
67890;DHT22;54685;52.082;5.426;2024-03-22T05:52:18;10.40;99.90
67890;DHT22;54685;52.082;5.426;2024-03-22T05:54:44;10.40;99.90
67890;DHT22;54685;52.082;5.426;2024-03-22T05:57:11;10.40;99.90
67890;DHT22;54685;52.082;5.426;2024-03-22T05:59:37;10.30;99.90
67890;DHT22;54685;52.082;5.426;2024-03-22T06:02:03;10.30;99.90
67890;DHT22;54685;52.082;5.426;2024-03-22T06:04:28;10.40;99.90
67890;DHT22;54685;52.082;5.426;2024-03-22T06:06:54;10.40;99.90
67890;DHT22;54685;52.082;5.426;2024-03-22T06:09:20;10.40;99.90
67890;DHT22;54685;52.082;5.426;2024-03-22T06:12:12;10.40;99.90
67890;DHT22;54685;52.082;5.426;2024-03-22T06:14:42;10.40;99.90
67890;DHT22;54685;52.082;5.426;2024-03-22T06:17:08;10.40;99.90
67890;DHT22;54685;52.082;5.426;2024-03-22T06:19:35;10.40;99.90
67890;DHT22;54685;52.082;5.426;2024-03-22T06:22:01;10.40;99.90
67890;DHT22;54685;52.082;5.426;2024-03-22T06:24:28;10.50;99.90
67890;DHT22;54685;52.082;5.426;2024-03-22T06:26:54;10.40;99.90
67890;DHT22;54685;52.082;5.426;2024-03-22T06:29:20;10.40;99.90
67890;DHT22;54685;52.082;5.426;2024-03-22T06:31:46;10.40;99.90
67890;DHT22;54685;52.082;5.426;2024-03-22T06:34:12;10.40;99.90
67890;DHT22;54685;52.082;5.426;2024-03-22T06:36:38;10.40;99.90
67890;DHT22;54685;52.082;5.426;2024-03-22T06:39:04;10.30;99.90
67890;DHT22;54685;52.082;5.426;2024-03-22T06:41:34;10.30;99.90
67890;DHT22;54685;52.082;5.426;2024-03-22T06:44:00;10.20;99.90
67890;DHT22;54685;52.082;5.426;2024-03-22T06:46:27;10.30;99.90
67890;DHT22;54685;52.082;5.426;2024-03-22T06:48:53;10.40;99.90
67890;DHT22;54685;52.082;5.426;2024-03-22T06:51:20;10.50;99.90
67890;DHT22;54685;52.082;5.426;2024-03-22T06:53:46;10.50;99.90
67890;DHT22;54685;52.082;5.426;2024-03-22T06:56:13;10.50;99.90
67890;DHT22;54685;52.082;5.426;2024-03-22T06:58:39;10.50;99.90
67890;DHT22;54685;52.082;5.426;2024-03-22T07:01:05;10.60;99.90
67890;DHT22;54685;52.082;5.426;2024-03-22T07:03:31;10.60;99.90
67890;DHT22;54685;52.082;5.426;2024-03-22T07:05:57;10.60;99.90
67890;DHT22;54685;52.082;5.426;2024-03-22T07:08:24;10.60;99.90
67890;DHT22;54685;52.082;5.426;2024-03-22T07:10:51;10.60;99.90
67890;DHT22;54685;52.082;5.426;2024-03-22T07:13:18;10.70;99.90
67890;DHT22;54685;52.082;5.426;2024-03-22T07:15:45;10.70;99.90
67890;DHT22;54685;52.082;5.426;2024-03-22T07:18:11;10.80;99.90
67890;DHT22;54685;52.082;5.426;2024-03-22T07:20:37;10.80;99.90
67890;DHT22;54685;52.082;5.426;2024-03-22T07:23:03;10.90;99.90
67890;DHT22;54685;52.082;5.426;2024-03-22T07:25:30;10.90;99.90
67890;DHT22;54685;52.082;5.426;2024-03-22T07:27:56;10.90;99.90
67890;DHT22;54685;52.082;5.426;2024-03-22T07:30:22;10.80;99.90
67890;DHT22;54685;52.082;5.426;2024-03-22T07:32:48;10.90;99.90
67890;DHT22;54685;52.082;5.426;2024-03-22T07:35:17;10.80;99.90
67890;DHT22;54685;52.082;5.426;2024-03-22T07:37:48;10.90;99.90
67890;DHT22;54685;52.082;5.426;2024-03-22T07:40:15;10.80;99.90
67890;DHT22;54685;52.082;5.426;2024-03-22T07:42:43;10.80;99.90
67890;DHT22;54685;52.082;5.426;2024-03-22T07:45:09;10.80;99.90
67890;DHT22;54685;52.082;5.426;2024-03-22T07:47:35;10.80;99.90
67890;DHT22;54685;52.082;5.426;2024-03-22T07:50:03;10.90;99.90
67890;DHT22;54685;52.082;5.426;2024-03-22T07:52:29;10.90;99.90
67890;DHT22;54685;52.082;5.426;2024-03-22T07:54:55;10.80;99.90
67890;DHT22;54685;52.082;5.426;2024-03-22T07:57:21;10.80;99.90
67890;DHT22;54685;52.082;5.426;2024-03-22T07:59:48;10.80;99.90
67890;DHT22;54685;52.082;5.426;2024-03-22T08:02:14;10.80;99.90
67890;DHT22;54685;52.082;5.426;2024-03-22T08:04:40;10.80;99.90
67890;DHT22;54685;52.082;5.426;2024-03-22T08:07:06;10.90;99.90
67890;DHT22;54685;52.082;5.426;2024-03-22T08:09:32;10.80;99.90
67890;DHT22;54685;52.082;5.426;2024-03-22T08:11:59;10.80;99.90
67890;DHT22;54685;52.082;5.426;2024-03-22T08:14:25;10.80;99.90
67890;DHT22;54685;52.082;5.426;2024-03-22T08:16:50;10.80;99.90
67890;DHT22;54685;52.082;5.426;2024-03-22T08:19:16;10.80;99.90
67890;DHT22;54685;52.082;5.426;2024-03-22T08:21:42;10.80;99.90
67890;DHT22;54685;52.082;5.426;2024-03-22T08:24:08;10.70;99.90
67890;DHT22;54685;52.082;5.426;2024-03-22T08:26:34;10.80;99.90
67890;DHT22;54685;52.082;5.426;2024-03-22T08:29:00;10.80;99.90
67890;DHT22;54685;52.082;5.426;2024-03-22T08:31:26;10.70;99.90
67890;DHT22;54685;52.082;5.426;2024-03-22T08:33:54;10.80;99.90
67890;DHT22;54685;52.082;5.426;2024-03-22T08:36:22;10.90;99.90
67890;DHT22;54685;52.082;5.426;2024-03-22T08:38:49;10.80;99.90
67890;DHT22;54685;52.082;5.426;2024-03-22T08:41:15;10.80;99.90
67890;DHT22;54685;52.082;5.426;2024-03-22T08:43:41;10.80;99.90
67890;DHT22;54685;52.082;5.426;2024-03-22T08:46:07;10.70;99.90
67890;DHT22;54685;52.082;5.426;2024-03-22T08:48:33;10.70;99.90
67890;DHT22;54685;52.082;5.426;2024-03-22T08:50:59;10.70;99.90
67890;DHT22;54685;52.082;5.426;2024-03-22T08:53:25;10.60;99.90
67890;DHT22;54685;52.082;5.426;2024-03-22T08:55:50;10.60;99.90
67890;DHT22;54685;52.082;5.426;2024-03-22T08:58:17;10.60;99.90
67890;DHT22;54685;52.082;5.426;2024-03-22T09:00:44;10.70;99.90
67890;DHT22;54685;52.082;5.426;2024-03-22T09:03:10;10.70;99.90
67890;DHT22;54685;52.082;5.426;2024-03-22T09:05:36;10.60;99.90
67890;DHT22;54685;52.082;5.426;2024-03-22T09:08:02;10.60;99.90
67890;DHT22;54685;52.082;5.426;2024-03-22T09:10:29;10.50;99.90
67890;DHT22;54685;52.082;5.426;2024-03-22T09:12:55;10.50;99.90
67890;DHT22;54685;52.082;5.426;2024-03-22T09:15:21;10.60;99.90
67890;DHT22;54685;52.082;5.426;2024-03-22T09:17:47;10.60;99.90
67890;DHT22;54685;52.082;5.426;2024-03-22T09:20:13;10.60;99.90
67890;DHT22;54685;52.082;5.426;2024-03-22T09:22:39;10.60;99.90
67890;DHT22;54685;52.082;5.426;2024-03-22T09:25:06;10.60;99.90
67890;DHT22;54685;52.082;5.426;2024-03-22T09:27:32;10.50;99.90
67890;DHT22;54685;52.082;5.426;2024-03-22T09:29:58;10.60;99.90
67890;DHT22;54685;52.082;5.426;2024-03-22T09:32:24;10.60;99.90
67890;DHT22;54685;52.082;5.426;2024-03-22T09:34:52;10.50;99.90
67890;DHT22;54685;52.082;5.426;2024-03-22T09:37:18;10.60;99.90
67890;DHT22;54685;52.082;5.426;2024-03-22T09:39:44;10.60;99.90
67890;DHT22;54685;52.082;5.426;2024-03-22T09:42:15;10.50;99.90
67890;DHT22;54685;52.082;5.426;2024-03-22T09:44:47;10.50;99.90
67890;DHT22;54685;52.082;5.426;2024-03-22T09:47:15;10.50;99.90
67890;DHT22;54685;52.082;5.426;2024-03-22T09:49:42;10.50;99.90
67890;DHT22;54685;52.082;5.426;2024-03-22T09:52:15;10.50;99.90
67890;DHT22;54685;52.082;5.426;2024-03-22T09:54:43;10.60;99.90
67890;DHT22;54685;52.082;5.426;2024-03-22T09:57:15;10.50;99.90
67890;DHT22;54685;52.082;5.426;2024-03-22T09:59:45;10.50;99.90
67890;DHT22;54685;52.082;5.426;2024-03-22T10:02:12;10.50;99.90
67890;DHT22;54685;52.082;5.426;2024-03-22T10:04:40;10.50;99.90
67890;DHT22;54685;52.082;5.426;2024-03-22T10:07:09;10.50;99.90
67890;DHT22;54685;52.082;5.426;2024-03-22T10:09:36;10.50;99.90
67890;DHT22;54685;52.082;5.426;2024-03-22T10:12:03;10.50;99.90
67890;DHT22;54685;52.082;5.426;2024-03-22T10:14:29;10.60;99.90
67890;DHT22;54685;52.082;5.426;2024-03-22T10:16:57;10.50;99.90
67890;DHT22;54685;52.082;5.426;2024-03-22T10:19:23;10.50;99.90
67890;DHT22;54685;52.082;5.426;2024-03-22T10:22:04;10.50;99.90
67890;DHT22;54685;52.082;5.426;2024-03-22T10:24:31;10.50;99.90
67890;DHT22;54685;52.082;5.426;2024-03-22T10:27:00;10.60;99.90
67890;DHT22;54685;52.082;5.426;2024-03-22T10:29:28;10.60;99.90
67890;DHT22;54685;52.082;5.426;2024-03-22T10:32:00;10.50;99.90
67890;DHT22;54685;52.082;5.426;2024-03-22T10:34:26;10.60;99.90
67890;DHT22;54685;52.082;5.426;2024-03-22T10:36:55;10.60;99.90
67890;DHT22;54685;52.082;5.426;2024-03-22T10:39:22;10.60;99.90
67890;DHT22;54685;52.082;5.426;2024-03-22T10:41:49;10.60;99.90
67890;DHT22;54685;52.082;5.426;2024-03-22T10:44:15;10.60;99.90
67890;DHT22;54685;52.082;5.426;2024-03-22T10:46:48;10.50;99.90
67890;DHT22;54685;52.082;5.426;2024-03-22T10:49:19;10.60;99.90
67890;DHT22;54685;52.082;5.426;2024-03-22T10:51:54;10.60;99.90
67890;DHT22;54685;52.082;5.426;2024-03-22T10:54:27;10.50;99.90
67890;DHT22;54685;52.082;5.426;2024-03-22T10:56:54;10.60;99.90
67890;DHT22;54685;52.082;5.426;2024-03-22T10:59:22;10.60;99.90
67890;DHT22;54685;52.082;5.426;2024-03-22T11:01:49;10.60;99.90
67890;DHT22;54685;52.082;5.426;2024-03-22T11:04:17;10.70;99.90
67890;DHT22;54685;52.082;5.426;2024-03-22T11:06:50;10.70;99.90
67890;DHT22;54685;52.082;5.426;2024-03-22T11:09:23;10.70;99.90
67890;DHT22;54685;52.082;5.426;2024-03-22T11:11:49;10.70;99.90
67890;DHT22;54685;52.082;5.426;2024-03-22T11:14:17;10.70;99.90
67890;DHT22;54685;52.082;5.426;2024-03-22T11:16:48;10.70;99.90
67890;DHT22;54685;52.082;5.426;2024-03-22T11:19:14;10.80;99.90
67890;DHT22;54685;52.082;5.426;2024-03-22T11:21:40;10.90;99.90
67890;DHT22;54685;52.082;5.426;2024-03-22T11:24:06;10.90;99.90
67890;DHT22;54685;52.082;5.426;2024-03-22T11:26:33;11.00;99.90
67890;DHT22;54685;52.082;5.426;2024-03-22T11:28:59;10.90;99.90
67890;DHT22;54685;52.082;5.426;2024-03-22T11:31:25;11.00;99.90
67890;DHT22;54685;52.082;5.426;2024-03-22T11:33:53;11.00;99.90
67890;DHT22;54685;52.082;5.426;2024-03-22T11:36:19;11.00;99.90
67890;DHT22;54685;52.082;5.426;2024-03-22T11:38:46;11.00;99.90
67890;DHT22;54685;52.082;5.426;2024-03-22T11:41:17;11.00;99.90
67890;DHT22;54685;52.082;5.426;2024-03-22T11:43:45;11.00;99.90
67890;DHT22;54685;52.082;5.426;2024-03-22T11:46:11;11.00;99.90
67890;DHT22;54685;52.082;5.426;2024-03-22T11:48:41;11.00;99.90
67890;DHT22;54685;52.082;5.426;2024-03-22T11:51:10;11.00;99.90
67890;DHT22;54685;52.082;5.426;2024-03-22T11:53:36;11.10;99.90
67890;DHT22;54685;52.082;5.426;2024-03-22T11:56:03;11.10;99.90
67890;DHT22;54685;52.082;5.426;2024-03-22T11:58:30;11.10;99.90
67890;DHT22;54685;52.082;5.426;2024-03-22T12:00:57;11.10;99.90
67890;DHT22;54685;52.082;5.426;2024-03-22T12:03:23;11.20;99.90
67890;DHT22;54685;52.082;5.426;2024-03-22T12:05:49;11.10;99.90
67890;DHT22;54685;52.082;5.426;2024-03-22T12:08:19;11.10;99.90
67890;DHT22;54685;52.082;5.426;2024-03-22T12:10:45;11.10;99.90
67890;DHT22;54685;52.082;5.426;2024-03-22T12:13:11;11.00;99.90
67890;DHT22;54685;52.082;5.426;2024-03-22T12:15:37;11.00;99.90
67890;DHT22;54685;52.082;5.426;2024-03-22T12:18:03;11.00;99.90
67890;DHT22;54685;52.082;5.426;2024-03-22T12:20:29;11.00;99.90
67890;DHT22;54685;52.082;5.426;2024-03-22T12:22:55;10.90;99.90
67890;DHT22;54685;52.082;5.426;2024-03-22T12:25:21;11.00;99.90
67890;DHT22;54685;52.082;5.426;2024-03-22T12:27:47;11.00;99.90
67890;DHT22;54685;52.082;5.426;2024-03-22T12:30:13;10.90;99.90
67890;DHT22;54685;52.082;5.426;2024-03-22T12:32:39;10.90;99.90
67890;DHT22;54685;52.082;5.426;2024-03-22T12:35:05;10.80;99.90
67890;DHT22;54685;52.082;5.426;2024-03-22T12:37:31;10.80;99.90
67890;DHT22;54685;52.082;5.426;2024-03-22T12:39:57;10.90;99.90
67890;DHT22;54685;52.082;5.426;2024-03-22T12:42:23;10.80;99.90
67890;DHT22;54685;52.082;5.426;2024-03-22T12:44:49;10.80;99.90
67890;DHT22;54685;52.082;5.426;2024-03-22T12:47:14;10.80;99.90
67890;DHT22;54685;52.082;5.426;2024-03-22T12:49:40;10.80;99.90
67890;DHT22;54685;52.082;5.426;2024-03-22T12:52:07;10.80;99.90
67890;DHT22;54685;52.082;5.426;2024-03-22T12:54:32;10.70;99.90
67890;DHT22;54685;52.082;5.426;2024-03-22T12:56:58;10.70;99.90
67890;DHT22;54685;52.082;5.426;2024-03-22T12:59:24;10.70;99.90
67890;DHT22;54685;52.082;5.426;2024-03-22T13:01:50;10.70;99.90
67890;DHT22;54685;52.082;5.426;2024-03-22T13:04:17;10.70;99.90
67890;DHT22;54685;52.082;5.426;2024-03-22T13:06:43;10.80;99.90
67890;DHT22;54685;52.082;5.426;2024-03-22T13:09:09;10.70;99.90
67890;DHT22;54685;52.082;5.426;2024-03-22T13:11:35;10.80;99.90
67890;DHT22;54685;52.082;5.426;2024-03-22T13:14:01;10.90;99.90
67890;DHT22;54685;52.082;5.426;2024-03-22T13:16:27;10.80;99.90
67890;DHT22;54685;52.082;5.426;2024-03-22T13:18:53;10.80;99.90
67890;DHT22;54685;52.082;5.426;2024-03-22T13:21:19;10.80;99.90
67890;DHT22;54685;52.082;5.426;2024-03-22T13:23:45;10.80;99.90
67890;DHT22;54685;52.082;5.426;2024-03-22T13:26:11;10.80;99.90
67890;DHT22;54685;52.082;5.426;2024-03-22T13:28:37;10.80;99.90
67890;DHT22;54685;52.082;5.426;2024-03-22T13:31:03;10.70;99.90
67890;DHT22;54685;52.082;5.426;2024-03-22T13:33:33;10.80;99.90
67890;DHT22;54685;52.082;5.426;2024-03-22T13:35:59;10.80;99.90
67890;DHT22;54685;52.082;5.426;2024-03-22T13:38:25;10.80;99.90
67890;DHT22;54685;52.082;5.426;2024-03-22T13:40:58;10.80;99.90
67890;DHT22;54685;52.082;5.426;2024-03-22T13:43:26;10.90;99.90
67890;DHT22;54685;52.082;5.426;2024-03-22T13:45:53;10.90;99.90
67890;DHT22;54685;52.082;5.426;2024-03-22T13:48:23;10.90;99.90
67890;DHT22;54685;52.082;5.426;2024-03-22T13:50:54;10.90;99.90
67890;DHT22;54685;52.082;5.426;2024-03-22T13:53:21;10.90;99.90
67890;DHT22;54685;52.082;5.426;2024-03-22T13:55:50;11.00;99.90
67890;DHT22;54685;52.082;5.426;2024-03-22T13:58:17;10.90;99.90
67890;DHT22;54685;52.082;5.426;2024-03-22T14:00:44;10.80;99.90
67890;DHT22;54685;52.082;5.426;2024-03-22T14:03:10;10.90;99.90
67890;DHT22;54685;52.082;5.426;2024-03-22T14:05:36;10.90;99.90
67890;DHT22;54685;52.082;5.426;2024-03-22T14:08:02;10.80;99.90
67890;DHT22;54685;52.082;5.426;2024-03-22T14:10:30;10.80;99.90
67890;DHT22;54685;52.082;5.426;2024-03-22T14:12:59;10.80;99.90
67890;DHT22;54685;52.082;5.426;2024-03-22T14:15:26;10.90;99.90
67890;DHT22;54685;52.082;5.426;2024-03-22T14:17:57;10.90;99.90
67890;DHT22;54685;52.082;5.426;2024-03-22T14:20:23;10.90;99.90
67890;DHT22;54685;52.082;5.426;2024-03-22T14:22:50;10.80;99.90
67890;DHT22;54685;52.082;5.426;2024-03-22T14:25:17;10.80;99.90
67890;DHT22;54685;52.082;5.426;2024-03-22T14:27:43;10.80;99.90
67890;DHT22;54685;52.082;5.426;2024-03-22T14:30:12;10.80;99.90
67890;DHT22;54685;52.082;5.426;2024-03-22T14:32:39;10.90;99.90
67890;DHT22;54685;52.082;5.426;2024-03-22T14:35:06;10.90;99.90
67890;DHT22;54685;52.082;5.426;2024-03-22T14:37:33;11.00;99.90
67890;DHT22;54685;52.082;5.426;2024-03-22T14:40:00;11.00;99.90
67890;DHT22;54685;52.082;5.426;2024-03-22T14:42:26;11.10;99.90
67890;DHT22;54685;52.082;5.426;2024-03-22T14:44:52;11.20;99.90
67890;DHT22;54685;52.082;5.426;2024-03-22T14:47:18;11.30;99.90
67890;DHT22;54685;52.082;5.426;2024-03-22T14:49:44;11.30;99.90
67890;DHT22;54685;52.082;5.426;2024-03-22T14:52:10;11.30;99.90
67890;DHT22;54685;52.082;5.426;2024-03-22T14:54:36;11.20;99.90
67890;DHT22;54685;52.082;5.426;2024-03-22T14:57:02;11.10;99.90
67890;DHT22;54685;52.082;5.426;2024-03-22T14:59:29;11.10;99.90
67890;DHT22;54685;52.082;5.426;2024-03-22T15:01:55;11.10;99.90
67890;DHT22;54685;52.082;5.426;2024-03-22T15:04:21;11.10;99.90
67890;DHT22;54685;52.082;5.426;2024-03-22T15:06:47;11.20;99.90
67890;DHT22;54685;52.082;5.426;2024-03-22T15:09:19;11.10;99.90
67890;DHT22;54685;52.082;5.426;2024-03-22T15:11:45;11.00;99.90
67890;DHT22;54685;52.082;5.426;2024-03-22T15:14:16;11.00;99.90
67890;DHT22;54685;52.082;5.426;2024-03-22T15:16:43;11.00;99.90
67890;DHT22;54685;52.082;5.426;2024-03-22T15:19:09;11.00;99.90
67890;DHT22;54685;52.082;5.426;2024-03-22T15:21:38;10.90;99.90
67890;DHT22;54685;52.082;5.426;2024-03-22T15:24:04;10.90;99.90
67890;DHT22;54685;52.082;5.426;2024-03-22T15:26:31;10.90;99.90